Terminal Aerodrome Forecast
Issued by NWS Tallahassee, FL

Current Version | Previous Version | Text Only | Print | Product List | Glossary On
Versions: 1 2 3 4 5 6 7 8 9 10 11 12 13 14 15 16 17 18 19 20 21 22
267
FTUS42 KTAE 211419 AAA
TAFTLH
TAF AMD
KTLH 211419Z 2114/2212 12009KT P6SM OVC005
     FM211500 15010G20KT P6SM SCT025 BKN050
     FM212300 14005KT P6SM BKN030
     FM220600 12004KT 3SM SHRA BR BKN015=

USA.gov is the U.S. government's official web portal to all federal, state and local government web resources and services.